Time;durP1;ratioP1;P1;durP2;ratioP2;P2;SDS_P1;SDS_P2;PMS_P1;PMS_P2;Temp;Humidity;BMP_temperature;BMP_pressure;BME280_temperature;BME280_humidity;BME280_pressure;Samples;Min_cycle;Max_cycle;Signal;HPM_P1;HPM_P2
2022/03/15 00:00:38;;;;;;;6.07;5.47;;;9.20;99.90;;;;;;5073372;28;20503;-55
2022/03/15 00:03:05;;;;;;;10.13;5.47;;;9.20;99.80;;;;;;5073331;28;20448;-57
2022/03/15 00:05:32;;;;;;;9.10;4.97;;;9.10;99.80;;;;;;5073175;28;20464;-55
2022/03/15 00:08:00;;;;;;;5.77;5.13;;;9.10;99.90;;;;;;5072817;28;20551;-56
2022/03/15 00:10:29;;;;;;;7.53;5.20;;;9.10;99.90;;;;;;5073186;28;20933;-56
2022/03/15 00:12:58;;;;;;;6.43;4.90;;;9.20;99.90;;;;;;5073331;28;20445;-56
2022/03/15 00:15:25;;;;;;;11.67;5.10;;;9.00;99.90;;;;;;5073010;28;20480;-55
2022/03/15 00:17:53;;;;;;;4.70;4.30;;;8.90;99.90;;;;;;5074697;28;20482;-56
2022/03/15 00:20:22;;;;;;;8.23;5.23;;;;;;;;;;5076879;28;20452;-56
2022/03/15 00:22:50;;;;;;;7.83;5.57;;;8.70;99.90;;;;;;5076773;28;20451;-56
2022/03/15 00:25:19;;;;;;;9.10;4.30;;;8.70;99.90;;;;;;5076664;28;20484;-56
2022/03/15 00:27:46;;;;;;;8.50;4.80;;;8.70;99.90;;;;;;5077107;28;20467;-55
2022/03/15 00:30:16;;;;;;;6.17;4.60;;;8.80;99.90;;;;;;5076561;28;20452;-56
2022/03/15 00:32:43;;;;;;;8.50;5.30;;;8.90;99.90;;;;;;5076570;28;20450;-56
2022/03/15 00:35:14;;;;;;;6.60;4.57;;;8.90;99.90;;;;;;5076792;28;20534;-56
2022/03/15 00:37:41;;;;;;;6.83;4.70;;;8.90;99.90;;;;;;5076487;28;20806;-56
2022/03/15 00:40:09;;;;;;;6.57;4.30;;;8.90;99.90;;;;;;5076303;28;20526;-56
2022/03/15 00:42:37;;;;;;;8.20;5.90;;;8.80;99.90;;;;;;5076263;28;20827;-56
2022/03/15 00:45:05;;;;;;;7.00;4.60;;;8.90;99.90;;;;;;5076657;28;20452;-56
2022/03/15 00:47:38;;;;;;;5.63;4.90;;;8.90;99.90;;;;;;5076166;28;20474;-56
2022/03/15 00:50:06;;;;;;;5.00;4.50;;;8.90;99.90;;;;;;5076145;28;20506;-56
2022/03/15 00:52:33;;;;;;;13.90;4.40;;;9.00;99.90;;;;;;5076222;28;21018;-56
2022/03/15 00:55:01;;;;;;;11.90;4.97;;;8.90;99.90;;;;;;5076364;28;20441;-56
2022/03/15 00:57:28;;;;;;;5.93;4.73;;;8.80;99.90;;;;;;5075706;28;21017;-56
2022/03/15 00:59:55;;;;;;;6.27;4.93;;;8.80;99.90;;;;;;5076495;28;20451;-56
2022/03/15 01:02:22;;;;;;;8.03;4.93;;;8.80;99.90;;;;;;5076040;28;20930;-55
2022/03/15 01:04:51;;;;;;;6.30;5.67;;;8.80;99.90;;;;;;5075811;28;20454;-56
2022/03/15 01:07:18;;;;;;;4.80;4.30;;;8.70;99.90;;;;;;5075795;28;20464;-56
2022/03/15 01:09:45;;;;;;;6.50;5.10;;;8.70;99.90;;;;;;5075958;28;20799;-55
2022/03/15 01:12:12;;;;;;;7.80;5.27;;;8.60;99.90;;;;;;5075798;28;20935;-56
2022/03/15 01:14:40;;;;;;;5.83;4.83;;;8.60;99.90;;;;;;5075995;28;20459;-56
2022/03/15 01:17:07;;;;;;;4.83;4.43;;;8.80;99.90;;;;;;5075665;28;20480;-56
2022/03/15 01:19:34;;;;;;;11.73;5.17;;;8.70;99.90;;;;;;5075941;28;20451;-56
2022/03/15 01:22:03;;;;;;;8.20;5.50;;;8.60;99.90;;;;;;5075595;28;20455;-56
2022/03/15 01:24:30;;;;;;;7.13;4.73;;;8.60;99.90;;;;;;5075654;28;20961;-56
2022/03/15 01:26:57;;;;;;;8.13;5.13;;;8.60;99.90;;;;;;5075616;28;20482;-56
2022/03/15 01:29:26;;;;;;;11.27;5.03;;;8.70;99.90;;;;;;5074800;28;20444;-56
2022/03/15 01:31:53;;;;;;;5.50;4.13;;;8.70;99.90;;;;;;5075856;28;20799;-56
2022/03/15 01:34:20;;;;;;;7.87;4.20;;;8.70;99.90;;;;;;5075401;28;20449;-56
2022/03/15 01:36:48;;;;;;;10.53;4.90;;;8.70;99.90;;;;;;5075648;28;20494;-57
2022/03/15 01:39:16;;;;;;;7.17;5.30;;;8.70;99.90;;;;;;5075687;28;20559;-56
2022/03/15 01:41:45;;;;;;;10.00;5.10;;;8.70;99.90;;;;;;5075602;28;20449;-56
2022/03/15 01:44:18;;;;;;;4.30;3.90;;;8.70;99.90;;;;;;5075585;28;20448;-56
2022/03/15 01:46:46;;;;;;;7.53;4.87;;;8.50;99.90;;;;;;5075081;28;20471;-56
2022/03/15 01:49:15;;;;;;;6.37;4.37;;;8.50;99.90;;;;;;5075513;28;20441;-56
2022/03/15 01:51:45;;;;;;;5.73;4.77;;;8.60;99.90;;;;;;5075210;28;20448;-56
2022/03/15 01:54:13;;;;;;;5.03;4.63;;;8.50;99.90;;;;;;5075079;28;20436;-56
2022/03/15 01:56:42;;;;;;;9.63;6.20;;;8.50;99.90;;;;;;5074808;28;20499;-56
2022/03/15 01:59:10;;;;;;;5.97;4.60;;;8.40;99.90;;;;;;5075447;28;20444;-56
2022/03/15 02:01:37;;;;;;;4.93;4.40;;;8.40;99.90;;;;;;5075345;28;20452;-56
2022/03/15 02:04:05;;;;;;;6.73;4.10;;;8.30;99.90;;;;;;5075274;28;20839;-56
2022/03/15 02:06:35;;;;;;;7.30;4.80;;;8.30;99.90;;;;;;5074643;28;20449;-56
2022/03/15 02:09:08;;;;;;;4.77;4.23;;;8.40;99.90;;;;;;5075189;28;20451;-56
2022/03/15 02:11:36;;;;;;;12.17;4.63;;;8.50;99.90;;;;;;5075004;28;20428;-56
2022/03/15 02:14:05;;;;;;;6.47;5.80;;;8.50;99.90;;;;;;5075013;28;20448;-56
2022/03/15 02:16:33;;;;;;;7.57;4.70;;;8.50;99.90;;;;;;5074504;28;20507;-56
2022/03/15 02:19:00;;;;;;;8.50;5.00;;;8.60;99.90;;;;;;5074834;28;20448;-56
2022/03/15 02:21:30;;;;;;;8.97;5.17;;;8.60;99.90;;;;;;5074865;28;20455;-56
2022/03/15 02:23:58;;;;;;;4.90;4.50;;;8.50;99.90;;;;;;5074742;28;20444;-57
2022/03/15 02:26:25;;;;;;;12.27;5.53;;;8.50;99.90;;;;;;5074396;28;20455;-56
2022/03/15 02:28:52;;;;;;;5.40;4.63;;;8.50;99.90;;;;;;5074386;28;20455;-56
2022/03/15 02:31:20;;;;;;;6.30;4.43;;;8.40;99.90;;;;;;5074682;28;20444;-56
2022/03/15 02:33:47;;;;;;;6.20;4.70;;;8.50;99.90;;;;;;5074265;28;20464;-56
2022/03/15 02:36:15;;;;;;;7.40;5.30;;;8.40;99.90;;;;;;5073928;28;21036;-56
2022/03/15 02:38:44;;;;;;;6.10;4.60;;;8.50;99.90;;;;;;5074802;28;20506;-56
2022/03/15 02:41:11;;;;;;;5.53;5.03;;;8.40;99.90;;;;;;5074268;28;20448;-56
2022/03/15 02:43:39;;;;;;;6.50;4.80;;;8.40;99.90;;;;;;5074043;28;20449;-56
2022/03/15 02:46:07;;;;;;;6.37;5.27;;;8.50;99.90;;;;;;5074358;28;20443;-56
2022/03/15 02:48:34;;;;;;;7.30;4.90;;;8.60;99.90;;;;;;5073884;28;20814;-56
2022/03/15 02:51:08;;;;;;;6.50;5.37;;;8.60;99.90;;;;;;5074196;28;20543;-56
2022/03/15 02:53:36;;;;;;;6.00;4.60;;;8.60;99.90;;;;;;5073972;28;20895;-56
2022/03/15 02:56:10;;;;;;;5.57;4.63;;;8.50;99.90;;;;;;5073938;28;20482;-56
2022/03/15 02:58:37;;;;;;;7.50;4.90;;;8.40;99.90;;;;;;5073954;28;20464;-56
2022/03/15 03:01:05;;;;;;;6.57;5.03;;;8.40;99.90;;;;;;5074035;28;20456;-56
2022/03/15 03:03:32;;;;;;;9.40;4.80;;;8.20;99.90;;;;;;5073897;28;20482;-56
2022/03/15 03:05:59;;;;;;;7.83;4.60;;;8.30;99.90;;;;;;5073826;28;20455;-56
2022/03/15 03:08:27;;;;;;;5.47;4.63;;;8.40;99.90;;;;;;5073773;28;20804;-56
2022/03/15 03:10:55;;;;;;;7.77;4.83;;;8.40;99.90;;;;;;5074071;28;20453;-57
2022/03/15 03:13:26;;;;;;;6.03;4.77;;;8.50;99.90;;;;;;5073482;28;20539;-57
2022/03/15 03:15:56;;;;;;;6.60;5.10;;;8.50;99.90;;;;;;5073773;28;20786;-56
2022/03/15 03:18:24;;;;;;;5.97;4.93;;;8.30;99.90;;;;;;5073315;28;20487;-56
2022/03/15 03:20:52;;;;;;;8.83;4.90;;;8.20;99.90;;;;;;5073567;28;20449;-56
2022/03/15 03:23:19;;;;;;;6.73;4.90;;;8.20;99.90;;;;;;5073768;28;20448;-56
2022/03/15 03:25:47;;;;;;;7.70;5.10;;;8.40;99.90;;;;;;5073184;28;20458;-56
2022/03/15 03:28:14;;;;;;;5.40;4.90;;;8.40;99.90;;;;;;5073347;28;20970;-56
2022/03/15 03:30:47;;;;;;;7.00;4.50;;;8.40;99.90;;;;;;5073267;28;20448;-56
2022/03/15 03:33:15;;;;;;;5.17;4.67;;;8.50;99.90;;;;;;5073586;28;20429;-56
2022/03/15 03:35:43;;;;;;;6.97;4.90;;;8.30;99.90;;;;;;5073248;28;20946;-56
2022/03/15 03:38:10;;;;;;;5.57;4.30;;;8.30;99.90;;;;;;5073312;28;20491;-56
2022/03/15 03:40:38;;;;;;;4.30;3.90;;;8.40;99.90;;;;;;5073186;28;20452;-56
2022/03/15 03:43:06;;;;;;;8.97;5.37;;;8.40;99.90;;;;;;5073281;28;20999;-56
2022/03/15 03:45:34;;;;;;;9.53;4.83;;;8.30;99.90;;;;;;5073417;28;20455;-56
2022/03/15 03:48:04;;;;;;;7.07;4.60;;;8.20;99.90;;;;;;5072983;28;20465;-56
2022/03/15 03:50:33;;;;;;;6.53;4.57;;;8.40;99.90;;;;;;5073214;28;20448;-56
2022/03/15 03:53:00;;;;;;;12.40;5.23;;;8.40;99.90;;;;;;5072619;28;20510;-56
2022/03/15 03:55:27;;;;;;;8.87;4.50;;;8.50;99.90;;;;;;5072787;28;20456;-56
2022/03/15 03:57:54;;;;;;;10.17;5.13;;;8.40;99.90;;;;;;5073189;28;20561;-56
2022/03/15 04:00:21;;;;;;;4.97;4.53;;;8.30;99.90;;;;;;5073359;28;20448;-56
2022/03/15 04:02:48;;;;;;;5.53;4.93;;;8.40;99.90;;;;;;5073211;28;20449;-55
2022/03/15 04:05:17;;;;;;;9.73;5.80;;;8.40;99.90;;;;;;5073250;28;20467;-56
2022/03/15 04:07:45;;;;;;;5.33;4.23;;;8.30;99.90;;;;;;5073300;28;20476;-56
2022/03/15 04:10:12;;;;;;;7.57;4.77;;;8.30;99.90;;;;;;5073210;28;20910;-56
2022/03/15 04:12:39;;;;;;;7.90;5.90;;;8.30;99.90;;;;;;5072789;28;20451;-56
2022/03/15 04:15:07;;;;;;;5.87;5.03;;;8.30;99.90;;;;;;5073222;28;20534;-56
2022/03/15 04:17:35;;;;;;;6.47;4.57;;;8.20;99.90;;;;;;5072634;28;20994;-56
2022/03/15 04:20:03;;;;;;;7.07;4.63;;;8.30;99.90;;;;;;5072837;28;20436;-56
2022/03/15 04:22:32;;;;;;;6.53;4.97;;;8.30;99.90;;;;;;5073140;28;20451;-56
2022/03/15 04:24:59;;;;;;;4.80;4.40;;;8.40;99.90;;;;;;5073188;28;20444;-56
2022/03/15 04:27:26;;;;;;;6.27;4.57;;;8.30;99.90;;;;;;5072797;28;20518;-55
2022/03/15 04:29:53;;;;;;;6.07;4.63;;;8.20;99.90;;;;;;5072631;28;20448;-56
2022/03/15 04:32:21;;;;;;;6.10;5.00;;;8.20;99.90;;;;;;5073110;28;20452;-57
2022/03/15 04:34:48;;;;;;;6.30;4.30;;;8.10;99.90;;;;;;5072765;28;20551;-56
2022/03/15 04:37:15;;;;;;;6.20;5.10;;;8.20;99.90;;;;;;5072496;28;20484;-57
2022/03/15 04:39:44;;;;;;;5.73;4.93;;;8.30;99.90;;;;;;5072671;28;20939;-57
2022/03/15 04:42:11;;;;;;;4.67;4.27;;;8.30;99.90;;;;;;5072518;28;20448;-56
2022/03/15 04:44:38;;;;;;;6.93;4.23;;;8.30;99.90;;;;;;5072832;28;20456;-57
2022/03/15 04:47:07;;;;;;;5.03;4.63;;;8.30;99.90;;;;;;5072783;28;20464;-56
2022/03/15 04:49:34;;;;;;;7.73;5.23;;;8.30;99.90;;;;;;5072555;28;20501;-57
2022/03/15 04:52:02;;;;;;;6.20;4.47;;;8.20;99.90;;;;;;5072750;28;20505;-57
2022/03/15 04:54:29;;;;;;;6.50;5.00;;;8.30;99.90;;;;;;5073031;28;20508;-56
2022/03/15 04:56:58;;;;;;;5.30;4.53;;;8.30;99.90;;;;;;5072025;28;20495;-57
2022/03/15 04:59:25;;;;;;;6.10;4.37;;;8.20;99.90;;;;;;5072402;28;20449;-56
2022/03/15 05:01:52;;;;;;;8.10;4.57;;;8.10;99.90;;;;;;5072867;28;20439;-57
2022/03/15 05:04:19;;;;;;;5.20;4.70;;;8.10;99.90;;;;;;5073467;28;20444;-56
2022/03/15 05:06:46;;;;;;;7.33;4.57;;;8.30;99.90;;;;;;5075733;28;20487;-56
2022/03/15 05:09:14;;;;;;;4.93;3.97;;;8.30;99.90;;;;;;5076335;28;20476;-57
2022/03/15 05:11:44;;;;;;;7.50;4.90;;;8.30;99.90;;;;;;5076092;28;20804;-57
2022/03/15 05:14:13;;;;;;;5.30;4.63;;;8.30;99.90;;;;;;5075776;28;20439;-56
2022/03/15 05:16:41;;;;;;;11.77;4.70;;;8.30;99.90;;;;;;5075540;28;20468;-56
2022/03/15 05:19:08;;;;;;;5.30;3.80;;;8.30;99.90;;;;;;5076094;28;20455;-56
2022/03/15 05:21:35;;;;;;;7.70;4.77;;;8.30;99.90;;;;;;5075566;28;20568;-57
2022/03/15 05:24:04;;;;;;;8.00;5.13;;;8.30;99.90;;;;;;5075841;28;20458;-56
2022/03/15 05:26:31;;;;;;;6.93;4.80;;;8.30;99.90;;;;;;5075737;28;20526;-56
2022/03/15 05:28:58;;;;;;;5.70;5.10;;;8.30;99.90;;;;;;5075736;28;20448;-56
2022/03/15 05:31:29;;;;;;;6.60;4.40;;;8.20;99.90;;;;;;5075780;28;20451;-56
2022/03/15 05:33:56;;;;;;;9.40;4.90;;;8.30;99.90;;;;;;5075570;28;20433;-56
2022/03/15 05:36:23;;;;;;;6.93;4.90;;;8.20;99.90;;;;;;5075120;28;20868;-56
2022/03/15 05:38:51;;;;;;;8.40;4.63;;;8.30;99.90;;;;;;5075473;28;20480;-57
2022/03/15 05:41:18;;;;;;;4.50;3.70;;;8.30;99.90;;;;;;5075610;28;20470;-57
2022/03/15 05:43:45;;;;;;;10.23;4.83;;;8.30;99.90;;;;;;5075134;28;20445;-57
2022/03/15 05:46:12;;;;;;;7.80;4.90;;;8.30;99.90;;;;;;5075208;28;20440;-57
2022/03/15 05:48:41;;;;;;;12.23;5.37;;;8.30;99.90;;;;;;5075135;28;20451;-56
2022/03/15 05:51:08;;;;;;;7.90;4.80;;;8.20;99.90;;;;;;5075330;28;20494;-57
2022/03/15 05:53:35;;;;;;;5.13;4.43;;;8.30;99.90;;;;;;5075258;28;20444;-57
2022/03/15 05:56:02;;;;;;;10.50;9.27;;;8.20;99.90;;;;;;5074778;28;20484;-56
2022/03/15 05:58:29;;;;;;;11.00;6.17;;;8.20;99.90;;;;;;5075180;28;20578;-56
2022/03/15 06:00:56;;;;;;;5.40;4.90;;;8.20;99.90;;;;;;5074804;28;20741;-57
2022/03/15 06:03:23;;;;;;;13.30;5.73;;;8.30;99.90;;;;;;5075033;28;20444;-56
2022/03/15 06:05:53;;;;;;;7.20;5.50;;;8.30;99.90;;;;;;5075047;28;20547;-56
2022/03/15 06:08:20;;;;;;;9.30;6.30;;;8.40;99.90;;;;;;5074513;28;20518;-57
2022/03/15 06:10:48;;;;;;;5.53;4.43;;;8.40;99.90;;;;;;5074479;28;20801;-57
2022/03/15 06:13:15;;;;;;;10.03;5.20;;;8.50;99.90;;;;;;5074935;28;20451;-56
2022/03/15 06:15:42;;;;;;;8.87;5.70;;;8.50;99.90;;;;;;5074367;28;20539;-56
2022/03/15 06:18:10;;;;;;;11.03;5.33;;;8.50;99.90;;;;;;5074498;28;20484;-56
2022/03/15 06:20:38;;;;;;;5.80;5.27;;;8.40;99.90;;;;;;5074841;28;20451;-56
2022/03/15 06:23:06;;;;;;;8.53;5.33;;;8.40;99.90;;;;;;5074317;28;20444;-56
2022/03/15 06:25:34;;;;;;;9.70;5.20;;;8.40;99.90;;;;;;5074298;28;20538;-56
2022/03/15 06:28:01;;;;;;;13.53;5.97;;;8.30;99.90;;;;;;5074212;28;20466;-56
2022/03/15 06:30:29;;;;;;;16.90;7.00;;;8.20;99.90;;;;;;5074501;28;20451;-57
2022/03/15 06:32:56;;;;;;;10.87;6.70;;;8.20;99.90;;;;;;5074089;28;20491;-57
2022/03/15 06:35:24;;;;;;;9.50;6.10;;;8.30;99.90;;;;;;5074301;28;20452;-57
2022/03/15 06:37:52;;;;;;;8.73;7.47;;;8.40;99.90;;;;;;5074187;28;20491;-56
2022/03/15 06:40:24;;;;;;;12.03;6.53;;;8.50;99.90;;;;;;5074213;28;20505;-56
2022/03/15 06:42:51;;;;;;;14.30;7.27;;;8.50;99.90;;;;;;5074146;28;20506;-56
2022/03/15 06:45:18;;;;;;;13.37;8.67;;;8.70;99.90;;;;;;5074163;28;20445;-56
2022/03/15 06:47:45;;;;;;;14.53;6.90;;;8.60;99.90;;;;;;5074154;28;20460;-56
2022/03/15 06:50:13;;;;;;;20.70;7.37;;;8.60;99.90;;;;;;5073583;28;20453;-56
2022/03/15 06:52:41;;;;;;;8.10;7.30;;;8.70;99.90;;;;;;5073531;28;20498;-56
2022/03/15 06:55:10;;;;;;;8.87;7.00;;;8.80;99.90;;;;;;5073800;28;20444;-56
2022/03/15 06:57:42;;;;;;;16.80;7.30;;;8.90;99.90;;;;;;5072944;28;20503;-56
2022/03/15 07:00:11;;;;;;;13.90;6.17;;;8.90;99.90;;;;;;5073759;28;20448;-56
2022/03/15 07:02:38;;;;;;;12.60;7.10;;;9.00;99.90;;;;;;5073766;28;20456;-57
2022/03/15 07:05:07;;;;;;;7.70;6.70;;;9.00;99.90;;;;;;5073157;28;20456;-56
2022/03/15 07:07:34;;;;;;;11.57;5.97;;;9.10;99.90;;;;;;5073677;28;20466;-56
2022/03/15 07:10:05;;;;;;;9.03;5.60;;;9.00;99.90;;;;;;5073872;28;20455;-57
2022/03/15 07:12:32;;;;;;;8.77;6.07;;;9.10;99.90;;;;;;5073936;28;20764;-57
2022/03/15 07:15:03;;;;;;;6.90;5.37;;;9.10;99.90;;;;;;5073225;28;20538;-57
2022/03/15 07:17:31;;;;;;;13.20;5.37;;;9.10;99.90;;;;;;5073254;28;20571;-57
2022/03/15 07:19:58;;;;;;;6.13;5.00;;;9.10;99.90;;;;;;5073455;28;20455;-57
2022/03/15 07:22:25;;;;;;;6.50;4.53;;;9.20;99.90;;;;;;5073317;28;20489;-57
2022/03/15 07:24:53;;;;;;;13.50;4.97;;;9.20;99.90;;;;;;5072564;28;20457;-56
2022/03/15 07:27:20;;;;;;;6.67;4.97;;;9.20;99.90;;;;;;5072294;28;20885;-57
2022/03/15 07:29:48;;;;;;;8.57;4.57;;;9.20;99.90;;;;;;5072960;28;20448;-57
2022/03/15 07:32:17;;;;;;;7.90;4.87;;;9.30;99.90;;;;;;5073364;28;20459;-57
2022/03/15 07:34:44;;;;;;;8.03;5.07;;;9.40;99.90;;;;;;5073309;28;20451;-57
2022/03/15 07:37:11;;;;;;;5.47;4.97;;;9.30;99.90;;;;;;5073269;28;20464;-57
2022/03/15 07:39:38;;;;;;;5.20;4.70;;;9.20;99.90;;;;;;5073134;28;20484;-58
2022/03/15 07:42:06;;;;;;;8.03;4.77;;;9.20;99.90;;;;;;5073048;28;20449;-56
2022/03/15 07:44:33;;;;;;;10.30;5.70;;;9.30;99.90;;;;;;5072663;28;20839;-56
2022/03/15 07:47:00;;;;;;;8.23;4.47;;;9.30;99.90;;;;;;5072682;28;20538;-55
2022/03/15 07:49:29;;;;;;;5.60;4.97;;;9.30;99.90;;;;;;5073280;28;20448;-56
2022/03/15 07:51:56;;;;;;;6.80;4.20;;;9.40;99.90;;;;;;5073119;28;20441;-56
2022/03/15 07:54:23;;;;;;;11.10;6.40;;;9.40;99.90;;;;;;5073045;28;20559;-55
2022/03/15 07:56:52;;;;;;;8.10;5.10;;;9.40;99.90;;;;;;5072437;28;20480;-56
2022/03/15 07:59:19;;;;;;;9.90;5.10;;;9.50;99.90;;;;;;5072669;28;20567;-56
2022/03/15 08:01:47;;;;;;;8.10;5.03;;;9.60;99.90;;;;;;5072814;28;20542;-56
2022/03/15 08:04:14;;;;;;;12.37;5.80;;;9.60;99.90;;;;;;5073044;28;20457;-57
2022/03/15 08:06:43;;;;;;;7.87;5.97;;;9.60;99.90;;;;;;5072560;28;20563;-56
2022/03/15 08:09:11;;;;;;;11.57;4.87;;;9.70;99.90;;;;;;5072695;28;20449;-56
2022/03/15 08:11:41;;;;;;;8.53;4.80;;;9.70;99.90;;;;;;5072911;28;20456;-56
2022/03/15 08:14:09;;;;;;;5.30;3.90;;;9.80;99.90;;;;;;5072432;28;20437;-56
2022/03/15 08:16:36;;;;;;;7.43;4.90;;;9.90;99.90;;;;;;5072696;28;20475;-56
2022/03/15 08:19:03;;;;;;;5.53;4.20;;;10.00;99.90;;;;;;5072847;28;20480;-57
2022/03/15 08:21:31;;;;;;;5.90;4.00;;;10.10;99.90;;;;;;5072412;28;20961;-57
2022/03/15 08:24:00;;;;;;;11.00;4.77;;;10.10;99.90;;;;;;5072266;28;20460;-57
2022/03/15 08:26:27;;;;;;;13.37;6.00;;;10.20;99.90;;;;;;5072282;28;20475;-56
2022/03/15 08:28:54;;;;;;;6.57;4.03;;;10.40;99.90;;;;;;5073056;28;20444;-56
2022/03/15 08:31:21;;;;;;;11.67;5.13;;;10.40;99.10;;;;;;5072172;28;20455;-56
2022/03/15 08:33:48;;;;;;;11.07;5.23;;;10.50;99.20;;;;;;5072576;28;20476;-55
2022/03/15 08:36:15;;;;;;;7.03;4.63;;;10.60;99.10;;;;;;5072136;28;20860;-56
2022/03/15 08:38:43;;;;;;;5.87;3.90;;;10.80;99.70;;;;;;5074180;28;20888;-56
2022/03/15 08:41:11;;;;;;;6.40;4.13;;;10.80;98.70;;;;;;5076556;28;20821;-56
2022/03/15 08:43:39;;;;;;;5.60;4.13;;;10.90;99.00;;;;;;5076214;28;20493;-56
2022/03/15 08:46:06;;;;;;;12.63;5.60;;;11.10;99.20;;;;;;5075821;28;20452;-56
2022/03/15 08:48:34;;;;;;;8.73;4.23;;;11.20;98.90;;;;;;5076118;28;20496;-56
2022/03/15 08:51:01;;;;;;;5.57;4.23;;;11.10;98.90;;;;;;5076179;28;20472;-57
2022/03/15 08:53:28;;;;;;;4.97;3.87;;;11.10;98.80;;;;;;5075923;28;20444;-56
2022/03/15 08:55:56;;;;;;;6.03;4.20;;;11.10;98.70;;;;;;5075769;28;20483;-56
2022/03/15 08:58:24;;;;;;;4.77;4.33;;;11.00;98.70;;;;;;5075998;28;20492;-56
2022/03/15 09:00:52;;;;;;;5.90;3.77;;;11.00;99.20;;;;;;5076138;28;20523;-56
2022/03/15 09:03:19;;;;;;;8.40;4.90;;;11.20;98.90;;;;;;5075561;28;20543;-56
2022/03/15 09:05:47;;;;;;;6.97;4.00;;;11.30;98.70;;;;;;5076072;28;20558;-56
2022/03/15 09:08:14;;;;;;;9.30;5.10;;;11.40;98.90;;;;;;5075606;28;20461;-57
2022/03/15 09:10:47;;;;;;;4.83;4.37;;;11.50;98.70;;;;;;5075786;28;20440;-57
2022/03/15 09:13:15;;;;;;;7.00;3.73;;;11.40;97.60;;;;;;5075721;28;20451;-57
2022/03/15 09:15:44;;;;;;;7.20;3.40;;;11.40;97.50;;;;;;5075861;28;20444;-56
2022/03/15 09:18:11;;;;;;;5.20;3.33;;;11.50;98.50;;;;;;5075259;28;21016;-56
2022/03/15 09:20:38;;;;;;;5.00;3.40;;;11.50;98.40;;;;;;5075354;28;20444;-56
2022/03/15 09:23:06;;;;;;;3.30;3.00;;;11.60;99.10;;;;;;5075913;28;20460;-57
2022/03/15 09:25:36;;;;;;;3.90;3.37;;;11.60;99.90;;;;;;5075824;28;20855;-57
2022/03/15 09:28:03;;;;;;;3.43;3.13;;;11.40;99.30;;;;;;5075174;28;20970;-57
2022/03/15 09:30:30;;;;;;;5.53;3.40;;;11.40;99.90;;;;;;5075423;28;20445;-57
2022/03/15 09:33:00;;;;;;;6.23;4.10;;;11.40;99.90;;;;;;5075519;28;20452;-56
2022/03/15 09:35:27;;;;;;;5.37;3.40;;;11.50;99.90;;;;;;5075290;28;20456;-57
2022/03/15 09:37:55;;;;;;;4.37;3.80;;;11.60;99.90;;;;;;5075061;28;20840;-57
2022/03/15 09:40:25;;;;;;;5.20;3.90;;;11.60;99.90;;;;;;5075334;28;20441;-57
2022/03/15 09:42:58;;;;;;;5.13;3.53;;;11.40;99.90;;;;;;5074930;28;20476;-56
2022/03/15 09:45:31;;;;;;;3.50;3.20;;;11.30;99.90;;;;;;5074885;28;20891;-56
2022/03/15 09:48:02;;;;;;;11.30;4.00;;;11.30;99.90;;;;;;5075034;28;20479;-57
2022/03/15 09:50:29;;;;;;;7.70;3.60;;;11.40;99.90;;;;;;5074518;28;20431;-56
2022/03/15 09:52:59;;;;;;;7.60;3.27;;;11.40;99.90;;;;;;5074583;28;20448;-57
2022/03/15 09:55:27;;;;;;;4.57;4.20;;;11.40;99.90;;;;;;5075044;28;20441;-57
2022/03/15 09:57:54;;;;;;;3.57;2.83;;;11.20;99.90;;;;;;5074529;28;20467;-56
2022/03/15 10:00:22;;;;;;;6.57;3.30;;;11.20;99.90;;;;;;5074468;28;20476;-57
2022/03/15 10:02:49;;;;;;;5.57;3.60;;;11.10;99.90;;;;;;5074597;28;20444;-56
2022/03/15 10:05:19;;;;;;;3.93;3.20;;;11.10;99.90;;;;;;5074912;28;20503;-57
2022/03/15 10:07:48;;;;;;;3.97;3.57;;;11.10;99.90;;;;;;5074716;28;20529;-56
2022/03/15 10:10:16;;;;;;;4.87;3.73;;;11.00;99.90;;;;;;5074401;28;20530;-56
2022/03/15 10:12:43;;;;;;;5.40;3.40;;;11.00;99.90;;;;;;5074523;28;20451;-56
2022/03/15 10:15:16;;;;;;;6.07;3.30;;;11.00;99.90;;;;;;5074520;28;20451;-56
2022/03/15 10:17:48;;;;;;;3.57;3.23;;;11.00;99.90;;;;;;5074177;28;20503;-57
2022/03/15 10:20:18;;;;;;;4.50;3.80;;;11.10;99.90;;;;;;5074444;28;20480;-56
2022/03/15 10:22:56;;;;;;;4.90;4.40;;;11.30;99.90;;;;;;5074768;28;20451;-56
2022/03/15 10:25:25;;;;;;;3.80;3.43;;;11.20;99.90;;;;;;5074598;28;20847;-56
2022/03/15 10:27:54;;;;;;;9.80;3.20;;;11.20;99.90;;;;;;5074344;28;20464;-56
2022/03/15 10:30:21;;;;;;;8.60;4.50;;;11.20;99.90;;;;;;5074194;28;20444;-56
2022/03/15 10:32:50;;;;;;;13.57;6.80;;;11.20;99.90;;;;;;5073891;28;20448;-56
2022/03/15 10:35:20;;;;;;;10.13;5.53;;;11.10;99.90;;;;;;5073844;28;20541;-56
2022/03/15 10:37:48;;;;;;;11.07;6.67;;;10.90;99.90;;;;;;5073575;28;20464;-56
2022/03/15 10:40:16;;;;;;;12.13;7.50;;;10.80;99.90;;;;;;5073866;28;20483;-57
2022/03/15 10:42:46;;;;;;;7.43;6.47;;;10.90;99.90;;;;;;5073718;28;20535;-57
2022/03/15 10:45:19;;;;;;;7.50;5.90;;;10.90;99.90;;;;;;5073606;28;20460;-56
2022/03/15 10:47:51;;;;;;;12.33;7.23;;;10.90;99.90;;;;;;5073334;28;20479;-57
2022/03/15 10:50:20;;;;;;;9.83;7.77;;;10.80;99.90;;;;;;5073753;28;21049;-56
2022/03/15 10:52:49;;;;;;;11.27;7.07;;;10.70;99.90;;;;;;5073414;28;20448;-57
2022/03/15 10:55:18;;;;;;;7.50;6.80;;;10.70;99.90;;;;;;5073258;28;20455;-57
2022/03/15 10:57:51;;;;;;;15.30;7.00;;;10.60;99.90;;;;;;5072820;28;20512;-56
2022/03/15 11:00:20;;;;;;;11.43;6.37;;;10.60;99.90;;;;;;5073517;28;20484;-56
2022/03/15 11:02:48;;;;;;;9.83;6.93;;;10.70;99.90;;;;;;5073037;28;20815;-56
2022/03/15 11:05:29;;;;;;;10.60;7.03;;;10.70;99.90;;;;;;5073269;28;20868;-56
2022/03/15 11:07:56;;;;;;;7.90;7.10;;;10.70;99.90;;;;;;5073013;28;20517;-55
2022/03/15 11:10:24;;;;;;;11.03;8.10;;;10.70;99.90;;;;;;5073526;28;20472;-56
2022/03/15 11:12:59;;;;;;;11.67;8.93;;;10.50;99.90;;;;;;5073077;28;20535;-56
2022/03/15 11:15:30;;;;;;;9.93;7.43;;;10.40;99.90;;;;;;5073217;28;20448;-57
2022/03/15 11:18:02;;;;;;;8.10;7.07;;;10.40;99.90;;;;;;5073495;28;20460;-56
2022/03/15 11:20:35;;;;;;;11.30;6.73;;;10.30;99.90;;;;;;5073456;28;20480;-56
2022/03/15 11:23:03;;;;;;;7.50;6.80;;;10.20;99.90;;;;;;5073445;28;20498;-56
2022/03/15 11:25:35;;;;;;;8.90;7.20;;;10.30;99.90;;;;;;5072799;28;20449;-56
2022/03/15 11:28:10;;;;;;;8.07;7.10;;;10.20;99.90;;;;;;5072891;28;20475;-56
2022/03/15 11:30:37;;;;;;;7.37;6.63;;;10.30;99.90;;;;;;5073573;28;20508;-57
2022/03/15 11:33:07;;;;;;;8.00;7.20;;;10.30;99.90;;;;;;5073190;28;20447;-57
2022/03/15 11:35:37;;;;;;;9.70;7.10;;;10.30;99.90;;;;;;5072924;28;20463;-56
2022/03/15 11:38:07;;;;;;;7.90;7.10;;;10.40;99.90;;;;;;5073035;28;20460;-56
2022/03/15 11:40:34;;;;;;;11.10;6.13;;;10.40;99.90;;;;;;5072803;28;20480;-56
2022/03/15 11:43:13;;;;;;;12.93;7.03;;;10.40;99.90;;;;;;5072925;28;20459;-57
2022/03/15 11:45:45;;;;;;;9.83;6.87;;;10.30;99.90;;;;;;5072509;28;20421;-56
2022/03/15 11:48:20;;;;;;;6.13;5.53;;;10.30;99.90;;;;;;5072607;28;20464;-56
2022/03/15 11:50:59;;;;;;;8.83;6.10;;;10.40;99.90;;;;;;5072879;28;20439;-56
2022/03/15 11:53:39;;;;;;;7.70;6.50;;;10.40;99.90;;;;;;5072936;28;20992;-57
2022/03/15 11:56:16;;;;;;;6.70;6.00;;;10.40;99.90;;;;;;5071774;28;20515;-57
2022/03/15 11:58:54;;;;;;;7.23;6.53;;;10.40;99.90;;;;;;5072530;28;20475;-56
2022/03/15 12:01:22;;;;;;;6.43;5.83;;;10.50;99.90;;;;;;5072982;28;20436;-56
2022/03/15 12:03:54;;;;;;;8.23;5.80;;;10.60;99.90;;;;;;5072778;28;20497;-56
2022/03/15 12:06:26;;;;;;;11.13;6.37;;;10.50;99.90;;;;;;5072460;28;20457;-55
2022/03/15 12:08:56;;;;;;;9.80;7.27;;;10.40;99.90;;;;;;5072765;28;20425;-56
2022/03/15 12:11:34;;;;;;;9.40;7.70;;;10.60;99.90;;;;;;5072278;28;20984;-56
2022/03/15 12:14:05;;;;;;;8.50;6.10;;;10.50;99.90;;;;;;5074905;28;20847;-57
2022/03/15 12:16:38;;;;;;;5.90;5.40;;;10.60;99.90;;;;;;5076909;28;20784;-56
2022/03/15 12:19:13;;;;;;;8.17;6.90;;;10.50;99.90;;;;;;5076497;28;20586;-56
2022/03/15 12:21:49;;;;;;;7.17;5.30;;;10.60;99.90;;;;;;5076273;28;20428;-56
2022/03/15 12:24:19;;;;;;;9.43;5.57;;;10.60;99.90;;;;;;5076190;28;20891;-56
2022/03/15 12:26:59;;;;;;;8.70;6.40;;;10.70;99.90;;;;;;5076374;28;20461;-56
2022/03/15 12:29:27;;;;;;;8.80;6.23;;;10.70;99.90;;;;;;5076437;28;20421;-56
2022/03/15 12:31:55;;;;;;;6.57;5.60;;;10.70;99.90;;;;;;5076350;28;20448;-56
2022/03/15 12:34:22;;;;;;;10.50;5.97;;;10.70;99.90;;;;;;5076530;28;20472;-56
2022/03/15 12:36:53;;;;;;;8.93;5.90;;;10.70;99.90;;;;;;5076287;28;20480;-56
2022/03/15 12:39:22;;;;;;;8.03;5.57;;;10.60;99.90;;;;;;5076329;28;20814;-56
2022/03/15 12:42:02;;;;;;;6.07;5.47;;;10.60;99.90;;;;;;5076493;28;20455;-56
2022/03/15 12:44:43;;;;;;;5.70;5.20;;;10.50;99.90;;;;;;5076175;28;20436;-56
2022/03/15 12:47:10;;;;;;;8.90;6.23;;;10.40;99.90;;;;;;5075829;28;20558;-56
2022/03/15 12:49:38;;;;;;;7.10;6.40;;;10.40;99.90;;;;;;5075671;28;20464;-56
2022/03/15 12:52:16;;;;;;;13.97;6.90;;;10.50;99.90;;;;;;5076142;28;20518;-57
2022/03/15 12:54:46;;;;;;;6.70;5.87;;;10.50;99.90;;;;;;5075654;28;20459;-56
2022/03/15 12:57:14;;;;;;;7.90;6.57;;;10.60;99.90;;;;;;5075465;28;20476;-57
2022/03/15 12:59:49;;;;;;;8.33;6.93;;;10.60;99.90;;;;;;5075317;28;20479;-56